Preview of NWS' New Version of Forecast
This preview is not operational and should not be used for support decisions.

Terminal Aerodrome Forecast (TAF)

Issued by National Weather Service (NWS)

                            
000
FTAK31 PAFC 211720
TAFADL
TAF
PADL 211720Z 2118/2218 VRB05KT P6SM SKC
     FM212100 18010KT P6SM BKN050 OVC100
     FM220000 22011G18KT P6SM -SHRA OVC030
     FM220900 VRB05KT P6SM -SHRA SCT015 BKN030=